createdAt,value
2023-03-21T00:00:22.864Z,27.97
2023-03-21T00:01:22.834Z,27.96
2023-03-21T00:02:22.773Z,27.97
2023-03-21T00:03:22.766Z,27.96
2023-03-21T00:04:22.728Z,27.97
2023-03-21T00:05:22.668Z,27.96
2023-03-21T00:06:22.558Z,27.97
2023-03-21T00:07:22.528Z,27.97
2023-03-21T00:08:22.457Z,27.97
2023-03-21T00:09:22.414Z,27.96
2023-03-21T00:10:37.123Z,27.95
2023-03-21T00:11:23.315Z,27.97
2023-03-21T00:12:22.250Z,27.95
2023-03-21T00:13:22.197Z,27.95
2023-03-21T00:14:22.138Z,27.96
2023-03-21T00:15:24.901Z,27.93
2023-03-21T00:16:29.944Z,27.96
2023-03-21T00:17:22.999Z,27.97
2023-03-21T00:18:21.939Z,27.96
2023-03-21T00:19:21.931Z,27.95
2023-03-21T00:20:21.825Z,27.98
2023-03-21T00:21:41.001Z,27.95
2023-03-21T00:22:22.726Z,27.96
2023-03-21T00:23:21.669Z,27.96
2023-03-21T00:24:21.613Z,27.96
2023-03-21T00:25:21.575Z,27.95
2023-03-21T00:26:21.509Z,27.93
2023-03-21T00:27:44.869Z,27.96
2023-03-21T00:28:22.398Z,27.97
2023-03-21T00:29:21.375Z,27.95
2023-03-21T00:30:21.301Z,27.96
2023-03-21T00:31:21.262Z,27.96
2023-03-21T00:32:21.218Z,27.94
2023-03-21T00:33:22.754Z,27.96
2023-03-21T00:34:31.672Z,27.96
2023-03-21T00:35:53.388Z,27.96
2023-03-21T00:36:22.019Z,27.97
2023-03-21T00:37:20.979Z,27.96
2023-03-21T00:38:20.937Z,27.96
2023-03-21T00:39:20.899Z,27.95
2023-03-21T00:40:27.849Z,27.96
2023-03-21T00:41:38.963Z,27.96
2023-03-21T00:42:21.736Z,27.98
2023-03-21T00:43:20.669Z,27.96
2023-03-21T00:44:20.631Z,27.97
2023-03-21T00:45:20.588Z,27.97
2023-03-21T00:46:21.800Z,27.96
2023-03-21T00:47:20.518Z,27.96
2023-03-21T00:48:20.505Z,27.96
2023-03-21T00:49:20.386Z,27.94
2023-03-21T00:50:20.344Z,27.98
2023-03-21T00:51:20.277Z,27.97
2023-03-21T00:52:30.821Z,27.97
2023-03-21T00:53:21.184Z,27.96
2023-03-21T00:54:20.183Z,27.97
2023-03-21T00:55:20.088Z,27.96
2023-03-21T00:56:20.050Z,27.98
2023-03-21T00:57:22.023Z,27.95
2023-03-21T00:58:19.956Z,27.97
2023-03-21T00:59:19.890Z,27.96
2023-03-21T01:00:19.837Z,27.95
2023-03-21T01:01:19.790Z,27.96
2023-03-21T01:02:19.812Z,27.95
2023-03-21T01:03:24.944Z,27.96
2023-03-21T01:04:20.638Z,27.97
2023-03-21T01:05:19.598Z,27.97
2023-03-21T01:06:19.799Z,27.97
2023-03-21T01:07:19.521Z,27.97
2023-03-21T01:08:26.608Z,27.95
2023-03-21T01:09:20.400Z,27.98
2023-03-21T01:10:19.355Z,27.96
2023-03-21T01:11:19.306Z,27.97
2023-03-21T01:12:19.256Z,27.95
2023-03-21T01:13:19.221Z,27.96
2023-03-21T01:14:23.039Z,27.98
2023-03-21T01:15:19.118Z,27.97
2023-03-21T01:16:19.142Z,27.94
2023-03-21T01:17:19.053Z,27.97
2023-03-21T01:18:18.996Z,27.95
2023-03-21T01:19:25.465Z,27.98
2023-03-21T01:20:19.891Z,27.99
2023-03-21T01:21:18.841Z,27.98
2023-03-21T01:22:18.809Z,27.95
2023-03-21T01:23:18.742Z,27.97
2023-03-21T01:24:18.683Z,27.98
2023-03-21T01:25:22.770Z,27.96
2023-03-21T01:26:18.572Z,27.95
2023-03-21T01:27:18.536Z,27.96
2023-03-21T01:28:18.479Z,27.94
2023-03-21T01:29:18.411Z,27.96
2023-03-21T01:30:21.657Z,27.96
2023-03-21T01:31:19.369Z,27.98
2023-03-21T01:32:18.278Z,27.96
2023-03-21T01:33:18.218Z,27.96
2023-03-21T01:34:18.185Z,27.98
2023-03-21T01:35:18.111Z,27.99
2023-03-21T01:36:21.000Z,27.95
2023-03-21T01:37:18.014Z,27.96
2023-03-21T01:38:17.976Z,27.94
2023-03-21T01:39:17.928Z,27.98
2023-03-21T01:40:17.874Z,27.95
2023-03-21T01:41:20.140Z,27.99
2023-03-21T01:42:17.811Z,27.97
2023-03-21T01:43:17.741Z,27.96
2023-03-21T01:44:17.714Z,27.96
2023-03-21T01:45:17.656Z,27.95
2023-03-21T01:46:17.698Z,27.95
2023-03-21T01:47:17.557Z,27.96
2023-03-21T01:48:17.581Z,27.97
2023-03-21T01:49:17.465Z,27.95
2023-03-21T01:50:17.397Z,27.95
2023-03-21T01:51:17.356Z,27.97
2023-03-21T01:52:29.856Z,27.97
2023-03-21T01:53:18.282Z,27.92
2023-03-21T04:54:15.961Z,25.16
2023-03-21T04:55:14.880Z,25.20
2023-03-21T06:25:14.073Z,25.45
2023-03-21T06:26:14.086Z,25.43
2023-03-21T06:27:14.010Z,25.45
2023-03-21T06:28:13.973Z,25.40
2023-03-21T06:29:13.954Z,25.40
2023-03-21T06:30:13.921Z,25.35
2023-03-21T06:31:13.961Z,25.37
2023-03-21T06:32:13.863Z,25.67
2023-03-21T06:33:13.804Z,25.97
2023-03-21T06:34:13.824Z,26.93
2023-03-21T06:35:13.755Z,27.66
2023-03-21T06:36:13.724Z,27.93
2023-03-21T06:37:13.703Z,28.25
2023-03-21T06:38:13.661Z,28.43
2023-03-21T06:39:13.646Z,28.84
2023-03-21T06:40:13.606Z,29.08
2023-03-21T06:41:13.582Z,29.19
2023-03-21T06:42:13.551Z,29.34
2023-03-21T06:43:13.518Z,29.35
2023-03-21T06:44:13.499Z,29.68
2023-03-21T06:45:13.447Z,29.82
2023-03-21T06:46:13.420Z,30.34
2023-03-21T06:47:13.382Z,30.66
2023-03-21T06:48:13.415Z,30.04
2023-03-21T06:49:13.317Z,29.17
2023-03-21T06:50:13.321Z,28.16
2023-03-21T06:51:13.242Z,28.01
2023-03-21T06:52:13.238Z,28.16
2023-03-21T06:53:13.159Z,28.26
2023-03-21T06:54:13.120Z,28.56
2023-03-21T06:55:13.081Z,28.70
2023-03-21T06:56:13.080Z,28.81
2023-03-21T06:57:13.032Z,29.46
2023-03-21T06:58:12.983Z,29.55
2023-03-21T06:59:12.940Z,29.76
2023-03-21T07:00:12.906Z,29.97
2023-03-21T07:01:12.895Z,30.10
2023-03-21T07:02:12.876Z,30.21
2023-03-21T07:03:12.799Z,30.22
2023-03-21T07:04:12.768Z,30.38
2023-03-21T07:05:12.730Z,30.38
2023-03-21T07:06:12.700Z,30.47
2023-03-21T07:07:12.651Z,30.50
2023-03-21T07:08:12.594Z,30.61
2023-03-21T07:09:12.581Z,30.70
2023-03-21T07:10:12.522Z,30.77
2023-03-21T07:11:12.466Z,30.87
2023-03-21T07:12:12.427Z,31.02
2023-03-21T07:13:12.384Z,31.06
2023-03-21T07:14:12.340Z,31.15
2023-03-21T07:15:12.293Z,31.21
2023-03-21T07:16:12.293Z,31.29
2023-03-21T07:17:12.212Z,31.32
2023-03-21T07:18:12.166Z,31.37
2023-03-21T07:19:12.176Z,31.37
2023-03-21T07:20:12.053Z,31.50
2023-03-21T07:21:12.004Z,31.49
2023-03-21T07:22:11.995Z,31.52
2023-03-21T07:23:11.923Z,31.35
2023-03-21T07:24:11.882Z,31.43
2023-03-21T07:25:11.924Z,31.49
2023-03-21T07:26:11.931Z,31.35
2023-03-21T07:27:11.818Z,31.32
2023-03-21T07:28:11.734Z,31.50
2023-03-21T07:29:11.636Z,31.67
2023-03-21T07:30:11.626Z,31.74
2023-03-21T07:31:11.576Z,31.57
2023-03-21T07:32:11.517Z,31.51
2023-03-21T07:33:11.498Z,31.66
2023-03-21T07:34:11.428Z,31.46
2023-03-21T07:35:11.374Z,31.72
2023-03-21T07:36:11.350Z,31.52
2023-03-21T07:37:11.301Z,31.45
2023-03-21T07:38:11.252Z,31.65
2023-03-21T07:39:11.217Z,31.59
2023-03-21T07:40:11.166Z,31.77
2023-03-21T07:41:11.107Z,31.84
2023-03-21T07:42:11.122Z,31.97
2023-03-21T07:43:11.031Z,32.09
2023-03-21T07:44:10.987Z,31.77
2023-03-21T07:45:10.970Z,30.44
2023-03-21T07:46:10.969Z,28.37
2023-03-21T07:47:10.826Z,26.02
2023-03-21T07:48:10.858Z,25.14
2023-03-21T07:49:10.759Z,25.11
2023-03-21T07:50:10.704Z,25.78
2023-03-21T07:51:10.673Z,26.39
2023-03-21T07:52:10.618Z,26.82
2023-03-21T07:53:10.592Z,27.32
2023-03-21T07:54:10.550Z,27.95
2023-03-21T07:55:10.548Z,28.19
2023-03-21T07:56:10.480Z,28.28
2023-03-21T07:57:12.516Z,28.25
2023-03-21T07:58:10.456Z,28.41
2023-03-21T07:59:10.344Z,28.72
2023-03-21T08:00:10.295Z,28.52
2023-03-21T08:01:10.248Z,28.05
2023-03-21T08:02:10.206Z,27.63
2023-03-21T08:03:10.181Z,27.13
2023-03-21T08:04:10.136Z,26.58
2023-03-21T08:05:10.058Z,26.08
2023-03-21T08:06:10.008Z,25.70
2023-03-21T08:07:09.987Z,25.65
2023-03-21T08:08:09.940Z,25.81
2023-03-21T08:09:09.911Z,26.21
2023-03-21T08:10:09.880Z,26.74
2023-03-21T08:11:09.821Z,27.42
2023-03-21T08:12:09.772Z,27.55
2023-03-21T08:13:09.734Z,27.58
2023-03-21T08:14:09.685Z,27.50
2023-03-21T08:15:09.644Z,27.96
2023-03-21T08:16:09.606Z,28.37
2023-03-21T08:17:09.701Z,28.07
2023-03-21T08:18:09.520Z,28.03
2023-03-21T08:19:09.452Z,28.08
2023-03-21T08:20:09.428Z,28.13
2023-03-21T08:21:09.756Z,28.64
2023-03-21T08:22:09.302Z,28.96
2023-03-21T08:23:09.265Z,28.89
2023-03-21T08:24:09.208Z,28.82
2023-03-21T08:25:09.141Z,28.79
2023-03-21T08:26:09.099Z,28.75
2023-03-21T08:27:09.056Z,29.04
2023-03-21T08:28:09.003Z,29.25
2023-03-21T08:29:08.928Z,29.15
2023-03-21T08:30:08.884Z,29.12
2023-03-21T08:31:08.935Z,29.12
2023-03-21T08:32:08.805Z,29.41
2023-03-21T08:33:08.760Z,29.74
2023-03-21T08:34:08.710Z,29.54
2023-03-21T08:35:08.672Z,29.79
2023-03-21T08:36:08.706Z,29.79
2023-03-21T08:37:08.579Z,29.93
2023-03-21T08:38:08.568Z,29.83
2023-03-21T08:39:08.485Z,29.86
2023-03-21T08:40:08.540Z,29.76
2023-03-21T08:41:08.390Z,29.77
2023-03-21T08:42:08.349Z,29.65
2023-03-21T08:43:08.411Z,29.62
2023-03-21T08:44:08.315Z,29.53
2023-03-21T08:45:08.210Z,29.45
2023-03-21T08:46:08.184Z,29.35
2023-03-21T08:47:08.130Z,29.31
2023-03-21T08:48:08.124Z,29.19
2023-03-21T08:49:08.071Z,29.17
2023-03-21T08:50:08.027Z,29.06
2023-03-21T08:51:07.935Z,29.06
2023-03-21T08:52:07.886Z,29.00
2023-03-21T08:53:07.904Z,28.94
2023-03-21T08:54:07.801Z,28.88
2023-03-21T08:55:07.727Z,28.79
2023-03-21T08:56:07.705Z,28.78
2023-03-21T08:57:07.703Z,28.69
2023-03-21T08:58:07.608Z,28.66
2023-03-21T08:59:07.590Z,28.60
2023-03-21T09:00:07.575Z,28.54
2023-03-21T09:01:07.476Z,28.56
2023-03-21T09:02:07.536Z,28.49
2023-03-21T09:03:07.371Z,28.25
2023-03-21T09:04:07.439Z,28.35
2023-03-21T09:05:07.287Z,28.38
2023-03-21T09:06:07.257Z,28.37
2023-03-21T09:07:07.180Z,28.28
2023-03-21T09:08:07.139Z,28.18
2023-03-21T09:09:07.083Z,28.14
2023-03-21T09:10:22.102Z,28.09
2023-03-21T09:11:07.999Z,28.06
2023-03-21T09:12:06.950Z,28.12
2023-03-21T09:13:06.893Z,28.02
2023-03-21T09:14:06.863Z,27.89
2023-03-21T09:15:06.806Z,27.91
2023-03-21T09:16:06.827Z,27.79
2023-03-21T09:17:06.726Z,27.80
2023-03-21T09:18:06.678Z,27.77
2023-03-21T09:19:06.626Z,27.64
2023-03-21T09:20:06.591Z,27.70
2023-03-21T09:21:06.533Z,27.69
2023-03-21T09:22:06.468Z,27.61
2023-03-21T09:23:06.453Z,27.48
2023-03-21T09:24:06.421Z,27.47
2023-03-21T09:25:06.346Z,27.43
2023-03-21T09:26:06.321Z,27.33
2023-03-21T09:27:06.231Z,27.23
2023-03-21T09:28:06.185Z,27.09
2023-03-21T09:29:06.136Z,27.07
2023-03-21T09:30:06.165Z,27.06
2023-03-21T09:31:06.078Z,27.09
2023-03-21T09:32:05.993Z,27.04
2023-03-21T09:51:05.084Z,26.45
2023-03-21T10:29:03.374Z,26.09
2023-03-21T10:30:03.319Z,26.08
2023-03-21T10:31:03.257Z,26.12
2023-03-21T10:32:03.323Z,26.11
2023-03-21T10:33:03.175Z,26.12
2023-03-21T10:34:03.127Z,26.12
2023-03-21T10:35:03.130Z,26.16
2023-03-21T10:36:03.064Z,26.15
2023-03-21T10:37:03.002Z,26.16
2023-03-21T10:38:02.927Z,26.16
2023-03-21T10:39:02.889Z,26.17
2023-03-21T10:40:02.866Z,26.18
2023-03-21T10:41:02.806Z,26.16
2023-03-21T10:42:02.766Z,26.04
2023-03-21T10:43:02.732Z,25.86
2023-03-21T10:44:02.682Z,26.07
2023-03-21T10:45:02.654Z,26.06
2023-03-21T10:46:02.710Z,25.86
2023-03-21T10:47:02.650Z,25.89
2023-03-21T10:48:02.791Z,25.84
2023-03-21T10:49:02.497Z,25.91
2023-03-21T10:50:07.854Z,25.78
2023-03-21T10:51:03.344Z,25.87
2023-03-21T10:52:02.298Z,25.89
2023-03-21T10:53:02.263Z,25.88
2023-03-21T10:54:02.207Z,25.88
2023-03-21T10:55:02.202Z,25.80
2023-03-21T10:56:02.128Z,25.78
2023-03-21T10:57:02.095Z,25.71
2023-03-21T10:58:02.025Z,25.69
2023-03-21T10:59:01.966Z,25.60
2023-03-21T11:00:01.977Z,25.56
2023-03-21T11:01:02.023Z,25.59
2023-03-21T11:02:01.913Z,25.65
2023-03-21T11:03:01.795Z,25.61
2023-03-21T11:04:01.770Z,26.65
2023-03-21T11:05:01.730Z,26.99
2023-03-21T11:06:01.666Z,27.24
2023-03-21T11:07:01.613Z,27.11
2023-03-21T11:08:01.601Z,27.58
2023-03-21T11:09:01.621Z,28.20
2023-03-21T11:10:01.476Z,28.59
2023-03-21T11:11:01.473Z,28.33
2023-03-21T11:12:01.474Z,28.84
2023-03-21T11:13:01.343Z,28.92
2023-03-21T11:14:01.277Z,29.46
2023-03-21T11:15:01.254Z,29.18
2023-03-21T11:16:01.192Z,29.26
2023-03-21T11:17:01.212Z,29.15
2023-03-21T11:18:01.100Z,29.56
2023-03-21T11:19:01.034Z,29.77
2023-03-21T11:20:01.008Z,29.60
2023-03-21T11:21:00.918Z,29.53
2023-03-21T11:22:00.861Z,29.86
2023-03-21T11:23:00.819Z,29.95
2023-03-21T11:24:00.770Z,30.03
2023-03-21T11:25:00.738Z,30.03
2023-03-21T11:26:00.660Z,30.10
2023-03-21T11:27:00.610Z,29.98
2023-03-21T11:28:00.547Z,29.96
2023-03-21T11:29:00.491Z,30.36
2023-03-21T11:30:00.480Z,30.25
2023-03-21T11:31:00.423Z,30.21
2023-03-21T11:32:00.305Z,30.42
2023-03-21T11:33:00.284Z,30.27
2023-03-21T11:34:00.185Z,30.34
2023-03-21T11:35:00.154Z,29.21
2023-03-21T11:36:00.186Z,29.15
2023-03-21T11:37:00.052Z,28.97
2023-03-21T11:37:59.988Z,28.63
2023-03-21T11:38:59.924Z,28.44
2023-03-21T11:39:59.844Z,28.26
2023-03-21T11:40:59.801Z,28.09
2023-03-21T11:41:59.784Z,27.99
2023-03-21T11:42:59.673Z,27.73
2023-03-21T11:43:59.631Z,27.58
2023-03-21T11:44:59.568Z,27.41
2023-03-21T11:45:59.618Z,27.31
2023-03-21T11:46:59.484Z,27.18
2023-03-21T11:47:59.464Z,26.97
2023-03-21T11:48:59.370Z,27.04
2023-03-21T11:50:05.005Z,27.04
2023-03-21T11:50:59.234Z,27.00
2023-03-21T11:51:59.168Z,26.81
2023-03-21T11:52:59.127Z,26.85
2023-03-21T11:53:59.042Z,27.14
2023-03-21T11:54:58.998Z,27.12
2023-03-21T11:55:58.958Z,27.04
2023-03-21T11:56:58.888Z,26.95
2023-03-21T11:58:05.341Z,26.94
2023-03-21T11:58:59.785Z,27.07
2023-03-21T11:59:58.744Z,26.88
2023-03-21T12:00:58.718Z,27.02
2023-03-21T12:01:58.623Z,27.15
2023-03-21T12:02:58.601Z,27.31
2023-03-21T12:03:58.504Z,27.27
2023-03-21T12:04:58.430Z,26.95
2023-03-21T12:05:58.435Z,26.86
2023-03-21T12:06:58.342Z,27.48
2023-03-21T12:07:58.304Z,27.64
2023-03-21T12:08:58.244Z,28.02
2023-03-21T12:09:58.183Z,28.80
2023-03-21T12:10:58.095Z,28.99
2023-03-21T12:11:58.027Z,29.51
2023-03-21T12:12:57.974Z,29.29
2023-03-21T12:13:57.905Z,29.34
2023-03-21T12:14:57.869Z,29.31
2023-03-21T12:15:57.794Z,29.36
2023-03-21T12:16:57.752Z,28.86
2023-03-21T12:17:57.690Z,28.91
2023-03-21T12:18:57.611Z,28.26
2023-03-21T12:19:57.604Z,28.15
2023-03-21T12:20:57.547Z,28.22
2023-03-21T12:21:57.447Z,28.19
2023-03-21T12:22:57.433Z,27.73
2023-03-21T12:23:57.328Z,27.57
2023-03-21T12:24:57.295Z,27.68
2023-03-21T12:25:57.244Z,27.69
2023-03-21T12:26:58.767Z,27.80
2023-03-21T12:27:57.120Z,27.95
2023-03-21T12:28:57.058Z,27.55
2023-03-21T12:29:57.074Z,27.17
2023-03-21T12:30:56.990Z,27.00
2023-03-21T12:31:56.906Z,26.99
2023-03-21T12:32:56.838Z,26.91
2023-03-21T12:33:56.773Z,26.83
2023-03-21T12:34:56.730Z,27.02
2023-03-21T12:35:56.701Z,26.82
2023-03-21T12:36:56.673Z,26.72
2023-03-21T12:37:57.909Z,26.85
2023-03-21T12:38:56.534Z,26.72
2023-03-21T12:39:56.557Z,26.81
2023-03-21T12:40:56.429Z,26.79
2023-03-21T12:41:56.396Z,26.86
2023-03-21T12:42:56.316Z,26.83
2023-03-21T12:43:56.264Z,26.56
2023-03-21T12:44:56.222Z,26.73
2023-03-21T12:45:56.176Z,26.50
2023-03-21T12:46:56.155Z,26.33
2023-03-21T12:47:56.083Z,26.45
2023-03-21T12:48:55.980Z,26.66
2023-03-21T12:49:55.934Z,26.67
2023-03-21T12:50:55.878Z,26.69
2023-03-21T12:51:55.847Z,26.55
2023-03-21T12:52:55.789Z,26.49
2023-03-21T12:53:55.715Z,26.58
2023-03-21T12:54:55.670Z,26.48
2023-03-21T12:55:55.706Z,26.51
2023-03-21T12:56:55.582Z,26.67
2023-03-21T12:57:57.808Z,26.59
2023-03-21T12:58:55.521Z,26.57
2023-03-21T12:59:55.468Z,26.68
2023-03-21T13:00:55.431Z,26.61
2023-03-21T13:01:55.353Z,26.58
2023-03-21T13:02:55.273Z,26.62
2023-03-21T13:03:55.227Z,26.54
2023-03-21T13:04:55.176Z,26.55
2023-03-21T13:05:55.136Z,26.64
2023-03-21T13:06:55.159Z,26.54
2023-03-21T13:07:55.170Z,26.67
2023-03-21T13:08:55.150Z,26.49
2023-03-21T13:09:55.185Z,26.56
2023-03-21T13:10:55.169Z,26.63
2023-03-21T13:11:55.310Z,26.65
2023-03-21T13:12:55.209Z,26.61
2023-03-21T13:13:55.191Z,26.70
2023-03-21T13:14:55.194Z,26.60
2023-03-21T13:15:55.187Z,26.57
2023-03-21T13:16:55.097Z,26.53
2023-03-21T13:17:55.040Z,26.53
2023-03-21T13:18:54.981Z,26.75
2023-03-21T13:19:54.966Z,26.86
2023-03-21T13:20:54.887Z,26.84
2023-03-21T13:21:54.848Z,27.01
2023-03-21T13:22:54.770Z,27.15
2023-03-21T13:23:54.733Z,27.26
2023-03-21T13:24:54.673Z,27.23
2023-03-21T13:25:54.636Z,27.35
2023-03-21T13:26:54.582Z,27.42
2023-03-21T13:27:54.632Z,27.47
2023-03-21T13:28:54.499Z,27.27
2023-03-21T13:29:54.457Z,27.22
2023-03-21T13:30:54.374Z,27.25
2023-03-21T13:31:57.063Z,27.22
2023-03-21T13:32:54.277Z,27.23
2023-03-21T13:33:54.213Z,27.20
2023-03-21T13:34:54.188Z,27.19
2023-03-21T13:35:54.154Z,27.12
2023-03-21T13:36:54.111Z,27.08
2023-03-21T13:37:54.021Z,26.95
2023-03-21T13:38:53.980Z,26.90
2023-03-21T13:39:53.950Z,26.98
2023-03-21T13:40:53.866Z,26.93
2023-03-21T13:41:53.828Z,26.79
2023-03-21T13:42:53.780Z,26.79
2023-03-21T13:43:53.789Z,26.80
2023-03-21T13:44:53.678Z,26.71
2023-03-21T13:45:53.677Z,26.58
2023-03-21T13:46:54.841Z,26.60
2023-03-21T13:47:53.541Z,26.65
2023-03-21T13:48:58.833Z,26.73
2023-03-21T13:49:54.412Z,26.76
2023-03-21T13:50:53.367Z,26.78
2023-03-21T13:51:53.313Z,26.73
2023-03-21T13:52:53.285Z,26.71
2023-03-21T13:53:53.188Z,26.67
2023-03-21T13:54:53.137Z,26.67
2023-03-21T13:55:53.094Z,26.67
2023-03-21T13:56:53.051Z,26.67
2023-03-21T13:57:53.009Z,26.67
2023-03-21T13:58:52.920Z,26.69
2023-03-21T13:59:53.054Z,26.67
2023-03-21T14:00:52.891Z,26.70
2023-03-21T14:01:52.769Z,26.69
2023-03-21T14:02:52.737Z,26.70
2023-03-21T14:03:52.691Z,26.68
2023-03-21T14:05:04.769Z,26.68
2023-03-21T14:05:53.619Z,26.70
2023-03-21T14:06:52.588Z,26.71
2023-03-21T14:07:52.888Z,26.71
2023-03-21T14:09:52.306Z,26.73
2023-03-21T14:10:52.273Z,26.72
2023-03-21T14:11:54.675Z,26.72
2023-03-21T14:12:52.153Z,26.71
2023-03-21T14:13:52.092Z,26.76
2023-03-21T14:14:52.028Z,26.74
2023-03-21T14:15:56.050Z,26.75
2023-03-21T14:16:51.932Z,26.75
2023-03-21T14:17:51.874Z,26.75
2023-03-21T14:18:55.044Z,26.73
2023-03-21T14:19:51.755Z,26.76
2023-03-21T14:20:51.695Z,26.76
2023-03-21T14:21:51.648Z,26.77
2023-03-21T14:22:51.568Z,26.77
2023-03-21T14:23:51.519Z,26.78
2023-03-21T14:24:51.454Z,26.76
2023-03-21T14:25:51.779Z,26.76
2023-03-21T14:26:51.356Z,26.76
2023-03-21T14:27:51.299Z,26.75
2023-03-21T14:28:51.227Z,26.76
2023-03-21T14:29:51.205Z,26.75
2023-03-21T14:30:51.154Z,26.75
2023-03-21T14:31:51.154Z,26.75
2023-03-21T14:32:51.024Z,26.73
2023-03-21T14:33:50.964Z,26.73
2023-03-21T14:34:50.891Z,26.74
2023-03-21T14:35:50.863Z,26.74
2023-03-21T14:36:57.692Z,26.76
2023-03-21T14:37:50.741Z,26.76
2023-03-21T14:38:50.679Z,26.76
2023-03-21T14:39:50.630Z,26.77
2023-03-21T14:40:50.559Z,26.76
2023-03-21T14:41:50.500Z,26.77
2023-03-21T14:42:50.452Z,26.78
2023-03-21T14:43:50.371Z,26.77
2023-03-21T14:44:55.372Z,26.74
2023-03-21T14:45:51.281Z,26.77
2023-03-21T14:46:50.198Z,26.77
2023-03-21T14:47:50.272Z,26.79
2023-03-21T14:48:50.095Z,26.79
2023-03-21T14:49:50.036Z,26.80
2023-03-21T14:50:49.972Z,26.79
2023-03-21T14:51:49.910Z,26.83
2023-03-21T14:52:49.884Z,26.83
2023-03-21T14:53:49.795Z,26.83
2023-03-21T14:54:49.733Z,26.85
2023-03-21T14:55:49.700Z,26.83
2023-03-21T14:56:49.611Z,26.84
2023-03-21T14:57:49.549Z,26.87
2023-03-21T14:58:49.484Z,26.85
2023-03-21T14:59:49.423Z,26.85
2023-03-21T15:00:49.367Z,26.85
2023-03-21T15:01:49.344Z,26.87
2023-03-21T15:02:49.273Z,26.88
2023-03-21T15:03:49.262Z,26.86
2023-03-21T15:04:49.155Z,26.87
2023-03-21T15:05:49.059Z,26.87
2023-03-21T15:06:49.020Z,26.89
2023-03-21T15:07:48.954Z,26.89
2023-03-21T15:08:48.897Z,26.88
2023-03-21T15:09:48.837Z,26.89
2023-03-21T15:10:57.684Z,26.88
2023-03-21T15:11:49.688Z,26.86
2023-03-21T15:12:48.627Z,26.89
2023-03-21T15:13:48.578Z,26.88
2023-03-21T15:14:48.495Z,26.89
2023-03-21T15:15:48.524Z,26.87
2023-03-21T15:16:48.391Z,26.86
2023-03-21T15:17:48.305Z,26.88
2023-03-21T15:18:48.240Z,26.86
2023-03-21T15:19:48.262Z,26.87
2023-03-21T15:20:48.110Z,26.90
2023-03-21T15:21:48.053Z,26.90
2023-03-21T15:22:47.999Z,26.89
2023-03-21T15:23:47.925Z,26.88
2023-03-21T15:24:47.877Z,26.89
2023-03-21T15:25:47.805Z,26.89
2023-03-21T15:26:47.752Z,26.88
2023-03-21T15:27:47.653Z,26.90
2023-03-21T15:28:47.607Z,26.89
2023-03-21T15:29:47.535Z,26.89
2023-03-21T15:30:47.462Z,26.90
2023-03-21T15:31:47.493Z,26.91
2023-03-21T15:32:48.521Z,26.91
2023-03-21T15:33:47.288Z,26.91
2023-03-21T15:34:47.244Z,26.95
2023-03-21T15:35:47.272Z,26.92
2023-03-21T15:36:47.098Z,26.92
2023-03-21T15:37:47.057Z,26.91
2023-03-21T15:38:46.995Z,26.93
2023-03-21T15:39:46.907Z,26.95
2023-03-21T15:40:46.851Z,26.95
2023-03-21T15:41:46.781Z,26.95
2023-03-21T15:42:46.745Z,26.93
2023-03-21T15:43:46.669Z,26.97
2023-03-21T15:44:46.621Z,26.96
2023-03-21T15:45:46.565Z,26.96
2023-03-21T15:46:46.521Z,26.97
2023-03-21T15:47:46.438Z,26.97
2023-03-21T15:48:46.348Z,26.96
2023-03-21T15:49:46.283Z,26.95
2023-03-21T15:50:46.214Z,27.00
2023-03-21T15:51:46.260Z,26.98
2023-03-21T15:52:46.110Z,26.99
2023-03-21T15:53:46.039Z,27.00
2023-03-21T16:51:42.297Z,27.21
2023-03-21T16:52:42.245Z,27.20
2023-03-21T16:53:42.215Z,27.22
2023-03-21T16:54:42.149Z,27.24
2023-03-21T16:55:42.095Z,27.24
2023-03-21T16:56:42.046Z,27.28
2023-03-21T16:57:41.986Z,27.25
2023-03-21T16:58:41.987Z,27.25
2023-03-21T16:59:41.876Z,27.23
2023-03-21T17:00:41.824Z,27.25
2023-03-21T17:01:41.854Z,27.26
2023-03-21T17:02:41.710Z,27.28
2023-03-21T17:03:41.752Z,27.28
2023-03-21T17:04:41.651Z,27.27
2023-03-21T17:05:41.548Z,27.28
2023-03-21T17:06:41.491Z,27.28
2023-03-21T17:07:41.447Z,27.28
2023-03-21T17:08:41.389Z,27.30
2023-03-21T17:09:41.349Z,27.29
2023-03-21T17:10:41.522Z,27.29
2023-03-21T17:11:41.230Z,27.29
2023-03-21T17:12:41.177Z,27.31
2023-03-21T17:13:41.121Z,27.31
2023-03-21T17:14:41.069Z,27.31
2023-03-21T17:15:41.066Z,27.31
2023-03-21T17:16:40.975Z,27.32
2023-03-21T17:17:40.905Z,27.33
2023-03-21T17:18:40.851Z,27.35
2023-03-21T17:19:40.821Z,27.36
2023-03-21T17:20:41.146Z,27.37
2023-03-21T17:21:40.696Z,27.34
2023-03-21T17:22:40.630Z,27.36
2023-03-21T17:23:40.581Z,27.37
2023-03-21T17:24:40.539Z,27.36
2023-03-21T17:25:40.467Z,27.37
2023-03-21T17:26:40.424Z,27.39
2023-03-21T17:27:40.355Z,27.39
2023-03-21T17:28:40.321Z,27.40
2023-03-21T17:29:40.311Z,27.38
2023-03-21T17:30:40.799Z,27.42
2023-03-21T17:31:40.157Z,27.39
2023-03-21T17:32:40.082Z,27.41
2023-03-21T17:33:40.033Z,27.41
2023-03-21T17:34:39.984Z,27.40
2023-03-21T17:35:39.935Z,27.41
2023-03-21T17:36:39.896Z,27.42
2023-03-21T17:37:39.817Z,27.44
2023-03-21T17:38:39.775Z,27.42
2023-03-21T17:39:39.727Z,27.41
2023-03-21T17:40:39.960Z,27.43
2023-03-21T17:41:39.586Z,27.44
2023-03-21T17:42:39.535Z,27.42
2023-03-21T17:43:39.474Z,27.42
2023-03-21T17:44:39.418Z,27.41
2023-03-21T17:45:39.375Z,27.43
2023-03-21T17:46:39.538Z,27.42
2023-03-21T17:47:39.271Z,27.41
2023-03-21T17:48:39.203Z,27.44
2023-03-21T17:49:39.151Z,27.43
2023-03-21T17:50:39.363Z,27.44
2023-03-21T17:51:39.039Z,27.45
2023-03-21T19:24:34.149Z,27.63
2023-03-21T19:31:33.384Z,27.62
2023-03-21T19:32:33.293Z,27.64
2023-03-21T19:33:33.244Z,27.63
2023-03-21T19:34:33.176Z,27.64
2023-03-21T19:35:33.113Z,27.64
2023-03-21T19:36:34.775Z,27.64
2023-03-21T19:37:35.274Z,27.65
2023-03-21T19:38:32.953Z,27.65
2023-03-21T19:39:32.894Z,27.64
2023-03-21T19:40:32.823Z,27.66
2023-03-21T19:41:32.794Z,27.65
2023-03-21T19:42:32.710Z,27.65
2023-03-21T19:43:33.730Z,27.66
2023-03-21T19:44:32.588Z,27.66
2023-03-21T19:45:32.573Z,27.65
2023-03-21T19:46:32.484Z,27.65
2023-03-21T19:47:32.779Z,27.67
2023-03-21T19:48:32.471Z,27.66
2023-03-21T19:50:04.741Z,27.66
2023-03-21T19:51:32.971Z,27.66
2023-03-21T19:52:32.300Z,27.66
2023-03-21T19:53:32.233Z,27.67
2023-03-21T19:54:32.170Z,27.66
2023-03-21T19:55:32.134Z,27.66
2023-03-21T19:56:32.102Z,27.67
2023-03-21T19:57:32.021Z,27.68
2023-03-21T19:58:31.958Z,27.68
2023-03-21T19:59:31.902Z,27.67
2023-03-21T20:00:31.848Z,27.69
2023-03-21T20:01:32.282Z,27.69
2023-03-21T20:02:36.629Z,27.68
2023-03-21T20:03:32.715Z,27.69
2023-03-21T20:04:31.635Z,27.70
2023-03-21T20:05:31.585Z,27.66
2023-03-21T20:06:31.542Z,27.71
2023-03-21T20:07:31.477Z,27.67
2023-03-21T20:08:48.796Z,27.67
2023-03-21T20:09:50.574Z,27.68
2023-03-21T20:10:32.315Z,27.67
2023-03-21T20:11:31.274Z,27.67
2023-03-21T20:12:31.220Z,27.68
2023-03-21T20:13:31.151Z,27.68
2023-03-21T20:14:31.099Z,27.69
2023-03-21T20:15:31.090Z,27.68
2023-03-21T20:16:34.559Z,27.68
2023-03-21T20:17:30.958Z,27.67
2023-03-21T20:18:30.928Z,27.69
2023-03-21T20:19:30.846Z,27.68
2023-03-21T20:20:30.801Z,27.69
2023-03-21T20:21:36.566Z,27.68
2023-03-21T20:23:03.113Z,27.70
2023-03-21T20:23:31.660Z,27.69
2023-03-21T20:24:30.585Z,27.71
2023-03-21T20:25:30.531Z,27.69
2023-03-21T20:26:30.495Z,27.67
2023-03-21T20:27:30.739Z,27.68
2023-03-21T20:28:30.375Z,27.68
2023-03-21T20:30:31.258Z,27.72
2023-03-21T20:31:30.242Z,27.72
2023-03-21T20:32:30.153Z,27.71
2023-03-21T20:33:30.104Z,27.70
2023-03-21T20:34:30.610Z,27.73
2023-03-21T20:36:17.864Z,27.70
2023-03-21T20:36:40.845Z,27.72
2023-03-21T20:37:30.921Z,27.74
2023-03-21T20:38:29.865Z,27.73
2023-03-21T20:39:30.094Z,27.73
2023-03-21T20:40:29.754Z,27.74
2023-03-21T20:41:29.736Z,27.74
2023-03-21T20:42:29.781Z,27.72
2023-03-21T20:44:20.512Z,27.73
2023-03-21T20:44:57.828Z,27.73
2023-03-21T20:45:30.527Z,27.73
2023-03-21T20:46:29.531Z,27.74
2023-03-21T20:47:29.496Z,27.75
2023-03-21T20:48:29.404Z,27.73
2023-03-21T20:49:29.521Z,27.72
2023-03-21T20:50:29.629Z,27.72
2023-03-21T20:53:30.182Z,27.73
2023-03-21T20:54:29.112Z,27.76
2023-03-21T20:55:29.063Z,27.73